Time;durP1;ratioP1;P1;durP2;ratioP2;P2;SDS_P1;SDS_P2;PMS_P1;PMS_P2;Temp;Humidity;BMP_temperature;BMP_pressure;BME280_temperature;BME280_humidity;BME280_pressure;Samples;Min_cycle;Max_cycle;Signal;HPM_P1;HPM_P2
2023/06/24 00:02:10;;;;;;;0.00;0.00;;;;;;;28.02;44.39;102480.69;5038323;28;20041;-80
2023/06/24 00:04:36;;;;;;;0.00;0.00;;;;;;;27.87;44.72;102475.41;5019473;28;20436;-80
2023/06/24 00:07:02;;;;;;;0.00;0.00;;;;;;;27.94;45.07;102473.06;5037243;28;20099;-77
2023/06/24 00:09:27;;;;;;;0.00;0.00;;;;;;;27.89;44.94;102477.84;5050182;28;20107;-79
2023/06/24 00:12:18;;;;;;;0.00;0.00;;;;;;;28.01;44.62;102473.50;5054139;28;20049;-79
2023/06/24 00:14:44;;;;;;;0.00;0.00;;;;;;;28.13;44.69;102473.84;5035918;28;20095;-80
2023/06/24 00:17:10;;;;;;;0.00;0.00;;;;;;;28.19;43.99;102471.81;5022150;28;20053;-79
2023/06/24 00:19:37;;;;;;;0.00;0.00;;;;;;;28.23;44.28;102478.38;5014452;28;20108;-79
2023/06/24 00:22:03;;;;;;;0.00;0.00;;;;;;;28.27;44.29;102479.41;5016969;28;20050;-80
2023/06/24 00:24:29;;;;;;;0.00;0.00;;;;;;;28.34;43.86;102475.09;5016883;28;20026;-78
2023/06/24 00:30:16;;;;;;;0.00;0.00;;;;;;;28.31;43.95;102472.97;5016559;28;20465;-78
2023/06/24 00:32:42;;;;;;;0.00;0.00;;;;;;;28.37;44.76;102476.47;5015860;28;20042;-80
2023/06/24 00:35:08;;;;;;;0.00;0.00;;;;;;;28.35;44.33;102475.94;5027313;28;20042;-81
2023/06/24 00:37:33;;;;;;;0.00;0.00;;;;;;;28.28;44.73;102481.06;5037614;28;20025;-79
2023/06/24 00:39:59;;;;;;;0.00;0.00;;;;;;;28.39;44.76;102480.56;5036619;28;20033;-79
2023/06/24 00:42:24;;;;;;;0.00;0.00;;;;;;;28.24;45.17;102478.09;5025133;28;20038;-78
2023/06/24 00:44:51;;;;;;;0.00;0.00;;;;;;;28.16;45.96;102480.72;4998581;28;20030;-80
2023/06/24 00:47:16;;;;;;;0.00;0.00;;;;;;;28.16;45.00;102481.56;5016220;28;20038;-79
2023/06/24 00:49:45;;;;;;;0.00;0.00;;;;;;;28.24;44.71;102485.56;5016801;28;20075;-82
2023/06/24 00:52:15;;;;;;;0.00;0.00;;;;;;;28.13;44.97;102484.91;5016706;28;20029;-79
2023/06/24 00:54:41;;;;;;;0.00;0.00;;;;;;;28.15;45.24;102487.34;5017510;28;20034;-81
2023/06/24 00:57:07;;;;;;;0.00;0.00;;;;;;;27.73;46.04;102483.59;5027577;28;20108;-78
2023/06/24 00:59:32;;;;;;;0.00;0.00;;;;;;;27.59;46.24;102484.69;5037144;28;20048;-78
2023/06/24 01:02:04;;;;;;;0.00;0.00;;;;;;;28.01;44.81;102481.78;5019553;28;20051;-80
2023/06/24 01:04:30;;;;;;;0.00;0.00;;;;;;;28.11;44.44;102481.63;5038287;28;20080;-79
2023/06/24 01:06:57;;;;;;;0.00;0.00;;;;;;;28.02;45.58;102483.44;5019950;28;20048;-80
2023/06/24 01:09:23;;;;;;;0.00;0.00;;;;;;;28.12;44.93;102479.69;5023174;28;20553;-81
2023/06/24 01:11:49;;;;;;;0.00;0.00;;;;;;;28.19;44.37;102480.09;5015207;28;20307;-78
2023/06/24 01:14:19;;;;;;;0.00;0.00;;;;;;;28.26;44.34;102473.06;5015345;28;20056;-80
2023/06/24 01:16:54;;;;;;;0.00;0.00;;;;;;;28.07;44.42;102475.06;5015306;28;20092;-80
2023/06/24 01:19:39;;;;;;;0.00;0.00;;;;;;;28.37;44.68;102466.22;5014301;28;20050;-80
2023/06/24 01:22:21;;;;;;;0.00;0.00;;;;;;;28.31;43.70;102461.09;5013979;28;20050;-78
2023/06/24 01:25:01;;;;;;;0.00;0.00;;;;;;;28.05;44.47;102463.47;5015964;28;20042;-77
2023/06/24 01:28:24;;;;;;;0.00;0.00;;;;;;;28.08;44.41;102470.34;5014061;28;20034;-78
2023/06/24 01:31:14;;;;;;;0.00;0.00;;;;;;;27.81;44.97;102471.06;4990022;28;20081;-79
2023/06/24 01:33:48;;;;;;;0.00;0.00;;;;;;;27.52;46.24;102464.88;4988319;28;20073;-81
2023/06/24 01:36:17;;;;;;;0.00;0.00;;;;;;;27.91;44.76;102468.13;4994047;28;20621;-79
2023/06/24 01:38:48;;;;;;;0.00;0.00;;;;;;;28.09;44.13;102461.75;4992983;28;20460;-78
2023/06/24 01:41:18;;;;;;;0.00;0.00;;;;;;;28.16;43.50;102455.84;4992264;28;20084;-79
2023/06/24 01:43:45;;;;;;;0.00;0.00;;;;;;;28.19;43.85;102455.22;4977553;28;20052;-79
2023/06/24 01:46:13;;;;;;;0.00;0.00;;;;;;;28.04;43.47;102455.50;4993095;28;20044;-78
2023/06/24 01:48:42;;;;;;;0.00;0.00;;;;;;;27.96;43.46;102450.66;4992759;28;20045;-81
2023/06/24 01:51:12;;;;;;;0.00;0.00;;;;;;;28.04;42.96;102453.56;4992749;28;20149;-79
2023/06/24 01:53:42;;;;;;;0.00;0.00;;;;;;;27.62;43.89;102446.22;4993024;28;20544;-81
2023/06/24 01:56:12;;;;;;;0.00;0.00;;;;;;;27.46;44.54;102452.31;4992357;28;20092;-79
2023/06/24 01:58:40;;;;;;;0.00;0.00;;;;;;;27.91;42.99;102454.28;4994257;28;20030;-79
2023/06/24 02:01:07;;;;;;;0.00;0.00;;;;;;;27.84;43.58;102448.34;5006579;28;20033;-80
2023/06/24 02:03:34;;;;;;;0.00;0.00;;;;;;;27.77;43.14;102456.22;5036305;28;20125;-78
2023/06/24 02:06:01;;;;;;;0.00;0.00;;;;;;;27.90;43.37;102452.66;5035541;28;20033;-77
2023/06/24 02:08:30;;;;;;;0.00;0.00;;;;;;;27.87;43.41;102447.75;5034898;28;20048;-79
2023/06/24 02:10:58;;;;;;;0.00;0.00;;;;;;;27.83;43.27;102442.00;5034362;28;20397;-77
2023/06/24 02:13:24;;;;;;;0.00;0.00;;;;;;;28.01;42.69;102447.81;5034643;28;20029;-78
2023/06/24 02:15:51;;;;;;;0.00;0.00;;;;;;;27.95;43.86;102447.06;5034108;28;20037;-80
2023/06/24 02:18:17;;;;;;;0.00;0.00;;;;;;;28.15;42.54;102443.94;5031654;28;20056;-81
2023/06/24 02:20:44;;;;;;;0.00;0.00;;;;;;;28.00;43.06;102438.72;5033598;28;20030;-77
2023/06/24 02:23:11;;;;;;;0.00;0.00;;;;;;;28.27;42.44;102438.75;5034615;28;20112;-79
2023/06/24 02:25:39;;;;;;;0.00;0.00;;;;;;;28.08;43.12;102438.00;5039267;28;20022;-79
2023/06/24 02:28:06;;;;;;;0.00;0.00;;;;;;;27.97;43.07;102444.81;5038103;28;20089;-81
2023/06/24 02:30:34;;;;;;;0.00;0.00;;;;;;;27.75;43.52;102445.44;5038249;28;20116;-78
2023/06/24 02:32:59;;;;;;;0.00;0.00;;;;;;;27.87;42.82;102442.22;5038510;28;20401;-79
2023/06/24 02:35:25;;;;;;;0.00;0.00;;;;;;;28.07;42.56;102441.09;5038881;28;20133;-78
2023/06/24 02:37:50;;;;;;;0.00;0.00;;;;;;;27.94;43.31;102436.28;5039470;28;20026;-79
2023/06/24 02:40:16;;;;;;;0.00;0.00;;;;;;;27.92;43.73;102446.84;5038392;28;20044;-81
2023/06/24 02:42:41;;;;;;;0.00;0.00;;;;;;;27.82;43.21;102436.78;5025462;28;20042;-79
2023/06/24 02:45:08;;;;;;;0.00;0.00;;;;;;;27.74;44.12;102440.22;5017594;28;20080;-81
2023/06/24 02:47:34;;;;;;;0.00;0.00;;;;;;;27.88;43.42;102434.75;5000568;28;20036;-78
2023/06/24 02:50:01;;;;;;;0.00;0.00;;;;;;;27.69;43.92;102437.56;5003734;28;20057;-78
2023/06/24 02:52:28;;;;;;;0.00;0.00;;;;;;;27.55;44.56;102439.44;5039517;28;20032;-80
2023/06/24 02:54:56;;;;;;;0.00;0.00;;;;;;;27.78;44.25;102442.09;5039175;28;20095;-78
2023/06/24 02:57:59;;;;;;;0.00;0.00;;;;;;;27.81;44.28;102432.38;5038610;28;20037;-79
2023/06/24 03:00:33;;;;;;;0.00;0.00;;;;;;;27.69;44.65;102434.78;5038519;28;20425;-81
2023/06/24 03:03:01;;;;;;;0.00;0.00;;;;;;;27.58;44.50;102439.66;5038355;28;20538;-79
2023/06/24 03:05:27;;;;;;;0.00;0.00;;;;;;;27.67;44.27;102434.28;5004055;28;20044;-79
2023/06/24 03:07:53;;;;;;;0.00;0.00;;;;;;;27.53;44.70;102434.22;5038663;28;20029;-80
2023/06/24 03:10:18;;;;;;;0.00;0.00;;;;;;;27.31;45.04;102430.38;5056089;28;20056;-78
2023/06/24 03:12:44;;;;;;;0.00;0.00;;;;;;;27.48;44.44;102427.94;5057858;28;20306;-79
2023/06/24 03:15:09;;;;;;;0.00;0.00;;;;;;;27.46;44.57;102430.19;5055862;28;20028;-78
2023/06/24 03:17:36;;;;;;;0.00;0.00;;;;;;;27.48;44.19;102437.03;5023908;28;20076;-79
2023/06/24 03:20:02;;;;;;;0.00;0.00;;;;;;;27.54;44.09;102443.31;5036749;28;20421;-78
2023/06/24 03:22:28;;;;;;;0.00;0.00;;;;;;;27.58;43.85;102445.19;5038004;28;20129;-79
2023/06/24 03:24:53;;;;;;;0.00;0.00;;;;;;;27.53;44.84;102447.22;5037152;28;20061;-79
2023/06/24 03:27:37;;;;;;;0.00;0.00;;;;;;;27.67;44.58;102446.16;5038047;28;20053;-80
2023/06/24 03:30:03;;;;;;;0.00;0.00;;;;;;;27.57;44.24;102448.25;5038190;28;20053;-79
2023/06/24 03:32:29;;;;;;;0.00;0.00;;;;;;;27.58;44.88;102452.63;5036469;28;20037;-82
2023/06/24 03:34:54;;;;;;;0.00;0.00;;;;;;;27.51;44.65;102457.72;5037074;28;20370;-78
2023/06/24 03:37:19;;;;;;;0.00;0.00;;;;;;;27.53;44.68;102453.56;5038555;28;20079;-79
2023/06/24 03:39:45;;;;;;;0.00;0.00;;;;;;;27.42;44.56;102456.78;5037398;28;20033;-79
2023/06/24 03:42:10;;;;;;;0.00;0.00;;;;;;;27.48;44.88;102453.63;5028100;28;20033;-78
2023/06/24 03:44:36;;;;;;;0.00;0.00;;;;;;;27.46;45.24;102449.53;5017563;28;20030;-79
2023/06/24 03:47:01;;;;;;;0.00;0.00;;;;;;;27.40;45.19;102454.28;5017131;28;20086;-78
2023/06/24 03:49:27;;;;;;;0.00;0.00;;;;;;;27.35;45.09;102454.38;5017964;28;20022;-78
2023/06/24 03:51:52;;;;;;;0.00;0.00;;;;;;;27.34;45.37;102443.63;5015600;28;20034;-80
2023/06/24 03:54:17;;;;;;;0.00;0.00;;;;;;;27.32;45.66;102440.31;5017262;28;20564;-78
2023/06/24 03:56:43;;;;;;;0.00;0.00;;;;;;;27.63;44.76;102444.28;5018014;28;20026;-80
2023/06/24 03:59:09;;;;;;;0.00;0.00;;;;;;;27.44;45.04;102443.50;5017129;28;20041;-77
2023/06/24 04:01:36;;;;;;;0.00;0.00;;;;;;;27.56;45.04;102447.41;5024693;28;20037;-78
2023/06/24 04:04:01;;;;;;;0.00;0.00;;;;;;;27.59;45.60;102452.34;5035481;28;20029;-78
2023/06/24 04:06:27;;;;;;;0.00;0.00;;;;;;;27.59;45.89;102448.78;5036325;28;20033;-80
2023/06/24 04:08:52;;;;;;;0.00;0.00;;;;;;;27.47;45.96;102445.63;5036917;28;20037;-77
2023/06/24 04:11:18;;;;;;;0.00;0.00;;;;;;;27.46;46.17;102439.28;5035646;28;20510;-78
2023/06/24 04:13:48;;;;;;;0.00;0.00;;;;;;;27.52;46.32;102440.03;5041649;28;20088;-80
2023/06/24 04:16:14;;;;;;;0.00;0.00;;;;;;;27.48;46.29;102448.09;5035722;28;20415;-78
2023/06/24 04:18:39;;;;;;;0.00;0.00;;;;;;;27.56;46.28;102443.81;5036373;28;20049;-77
2023/06/24 04:21:06;;;;;;;0.00;0.00;;;;;;;27.51;46.04;102449.44;5017337;28;20041;-77
2023/06/24 04:23:32;;;;;;;0.00;0.00;;;;;;;27.62;45.25;102448.97;5017040;28;20052;-78
2023/06/24 04:25:57;;;;;;;0.00;0.00;;;;;;;27.51;45.85;102452.22;4999753;28;20022;-78
2023/06/24 04:28:23;;;;;;;0.00;0.00;;;;;;;27.39;46.08;102452.66;5017190;28;20042;-79
2023/06/24 04:30:48;;;;;;;0.00;0.00;;;;;;;27.51;45.82;102454.97;5016185;28;20045;-79
2023/06/24 04:33:13;;;;;;;0.00;0.00;;;;;;;27.72;45.35;102451.59;4999461;28;20240;-79
2023/06/24 04:35:39;;;;;;;0.00;0.00;;;;;;;27.58;46.37;102450.69;5016118;28;20056;-79
2023/06/24 04:38:04;;;;;;;0.00;0.00;;;;;;;27.62;45.69;102461.97;5016632;28;20398;-78
2023/06/24 04:40:30;;;;;;;0.00;0.00;;;;;;;27.66;46.02;102461.06;4999705;28;20038;-79
2023/06/24 04:43:08;;;;;;;0.00;0.00;;;;;;;27.75;45.55;102459.25;5010491;28;20041;-79
2023/06/24 04:45:34;;;;;;;0.00;0.00;;;;;;;27.69;45.25;102463.22;4997049;28;20046;-77
2023/06/24 04:47:59;;;;;;;0.00;0.00;;;;;;;27.70;45.54;102470.41;4996830;28;20120;-80
2023/06/24 04:50:25;;;;;;;0.00;0.00;;;;;;;28.03;45.61;102465.72;4996679;28;20037;-78
2023/06/24 04:52:54;;;;;;;0.00;0.00;;;;;;;27.88;45.71;102463.19;4997227;28;20029;-79
2023/06/24 04:55:21;;;;;;;0.00;0.00;;;;;;;27.83;46.39;102470.75;4998204;28;20058;-79
2023/06/24 04:57:47;;;;;;;0.00;0.00;;;;;;;27.74;46.10;102465.09;4997546;28;20038;-80
2023/06/24 05:00:33;;;;;;;0.00;0.00;;;;;;;28.25;45.36;102467.81;4997410;28;20030;-79
2023/06/24 05:02:58;;;;;;;0.00;0.00;;;;;;;28.09;45.51;102472.81;4997566;28;20046;-81
2023/06/24 05:05:25;;;;;;;0.00;0.00;;;;;;;28.18;45.33;102478.47;4997270;28;20046;-82
2023/06/24 05:07:50;;;;;;;0.00;0.00;;;;;;;28.09;46.17;102474.78;4997450;28;20027;-80
2023/06/24 05:10:16;;;;;;;0.00;0.00;;;;;;;28.03;46.34;102484.28;5030992;28;20041;-79
2023/06/24 05:12:41;;;;;;;0.00;0.00;;;;;;;28.12;45.70;102486.03;5037414;28;20485;-81
2023/06/24 05:15:07;;;;;;;0.00;0.00;;;;;;;28.15;46.34;102479.06;5032896;28;20033;-79
2023/06/24 05:17:33;;;;;;;0.00;0.00;;;;;;;28.44;44.72;102472.16;5010238;28;20050;-79
2023/06/24 05:19:58;;;;;;;0.00;0.00;;;;;;;28.55;43.88;102476.41;5016560;28;20029;-80
2023/06/24 05:22:24;;;;;;;0.00;0.00;;;;;;;28.50;44.46;102470.94;5017032;28;20445;-82
2023/06/24 05:24:49;;;;;;;0.00;0.00;;;;;;;28.62;43.52;102465.75;5016760;28;20030;-81
2023/06/24 05:27:15;;;;;;;0.00;0.00;;;;;;;28.54;44.44;102472.00;5016039;28;20037;-80
2023/06/24 05:29:40;;;;;;;0.00;0.00;;;;;;;28.67;44.16;102472.31;5017115;28;20029;-81
2023/06/24 05:32:06;;;;;;;0.00;0.00;;;;;;;28.46;44.44;102467.13;5017531;28;20398;-81
2023/06/24 05:34:32;;;;;;;0.00;0.00;;;;;;;28.67;43.43;102464.84;5017098;28;20022;-78
2023/06/24 05:36:58;;;;;;;0.00;0.00;;;;;;;28.72;43.67;102464.72;4999132;28;20026;-80
2023/06/24 05:39:24;;;;;;;0.00;0.00;;;;;;;28.77;43.28;102458.28;5016188;28;20030;-80
2023/06/24 05:41:49;;;;;;;0.00;0.00;;;;;;;28.77;42.81;102463.81;5016979;28;20406;-81
2023/06/24 05:44:17;;;;;;;0.00;0.00;;;;;;;28.70;43.13;102466.19;5016149;28;20041;-78
2023/06/24 05:46:43;;;;;;;0.00;0.00;;;;;;;28.98;43.08;102465.84;5016213;28;20112;-81
2023/06/24 05:49:08;;;;;;;0.00;0.00;;;;;;;28.90;42.98;102471.28;5016285;28;20437;-81
2023/06/24 05:51:34;;;;;;;0.00;0.00;;;;;;;28.91;42.74;102476.53;5016133;28;20440;-82
2023/06/24 05:53:59;;;;;;;0.00;0.00;;;;;;;28.92;42.78;102467.06;5015813;28;20068;-81
2023/06/24 05:56:25;;;;;;;0.00;0.00;;;;;;;29.19;42.50;102471.78;5016633;28;20034;-81
2023/06/24 05:58:50;;;;;;;0.00;0.00;;;;;;;29.19;42.39;102466.22;5016669;28;20030;-80
2023/06/24 06:01:15;;;;;;;0.00;0.00;;;;;;;29.24;41.84;102466.13;5016740;28;20026;-81
2023/06/24 06:03:41;;;;;;;0.00;0.00;;;;;;;28.99;42.24;102463.91;5016028;28;20038;-81
2023/06/24 06:06:07;;;;;;;0.00;0.00;;;;;;;29.20;41.80;102467.88;4998056;28;20042;-82
2023/06/24 06:08:33;;;;;;;0.00;0.00;;;;;;;29.29;41.76;102461.28;5010718;28;20038;-79
2023/06/24 06:10:59;;;;;;;0.00;0.00;;;;;;;29.40;40.96;102459.91;4995681;28;20022;-79
2023/06/24 06:13:24;;;;;;;0.00;0.00;;;;;;;29.48;40.99;102459.19;5014484;28;20096;-81
2023/06/24 06:15:49;;;;;;;0.00;0.00;;;;;;;29.36;40.81;102456.16;5015746;28;20026;-81
2023/06/24 06:18:15;;;;;;;0.00;0.00;;;;;;;29.50;40.92;102454.13;5014036;28;20050;-82
2023/06/24 06:20:40;;;;;;;0.00;0.00;;;;;;;29.61;40.76;102453.91;4998083;28;20042;-80
2023/06/24 06:23:07;;;;;;;0.00;0.00;;;;;;;29.75;40.63;102458.28;5015173;28;20379;-80
2023/06/24 06:25:32;;;;;;;0.00;0.00;;;;;;;29.82;40.49;102453.13;5015850;28;20079;-80
2023/06/24 06:27:58;;;;;;;0.00;0.00;;;;;;;29.93;40.21;102459.22;5015353;28;20429;-80
2023/06/24 06:30:23;;;;;;;0.00;0.00;;;;;;;29.93;40.19;102467.53;5015081;28;20057;-80
2023/06/24 06:32:49;;;;;;;0.00;0.00;;;;;;;29.88;40.70;102473.19;5015685;28;20043;-79
2023/06/24 06:35:14;;;;;;;0.00;0.00;;;;;;;29.92;40.63;102468.66;5014508;28;20038;-83
2023/06/24 06:37:39;;;;;;;0.00;0.00;;;;;;;29.83;40.20;102473.34;5015957;28;20379;-78
2023/06/24 06:40:05;;;;;;;0.00;0.00;;;;;;;30.10;40.08;102464.88;5015598;28;20037;-81
2023/06/24 06:42:31;;;;;;;0.00;0.00;;;;;;;30.13;40.33;102475.34;5015333;28;20034;-80
2023/06/24 06:44:56;;;;;;;0.00;0.00;;;;;;;30.34;39.66;102473.69;5015054;28;20100;-81
2023/06/24 06:47:23;;;;;;;0.00;0.00;;;;;;;29.92;39.67;102472.25;5014855;28;20034;-80
2023/06/24 06:49:48;;;;;;;0.00;0.00;;;;;;;30.29;39.06;102468.25;5015423;28;20036;-79
2023/06/24 06:52:14;;;;;;;0.00;0.00;;;;;;;29.99;39.40;102471.84;5016255;28;20515;-83
2023/06/24 06:54:39;;;;;;;0.00;0.00;;;;;;;30.04;39.77;102474.47;5015878;28;20030;-79
2023/06/24 06:57:05;;;;;;;0.00;0.00;;;;;;;30.47;38.93;102471.97;4998453;28;20042;-81
2023/06/24 06:59:31;;;;;;;0.00;0.00;;;;;;;30.52;38.69;102467.09;4998232;28;20091;-81
2023/06/24 07:01:57;;;;;;;0.00;0.00;;;;;;;30.37;39.83;102475.81;5015988;28;20085;-81
2023/06/24 07:04:22;;;;;;;0.00;0.00;;;;;;;30.58;39.57;102473.31;5016053;28;20486;-81
2023/06/24 07:06:48;;;;;;;0.00;0.00;;;;;;;30.66;39.29;102473.34;5015150;28;20034;-81
2023/06/24 07:09:14;;;;;;;0.00;0.00;;;;;;;30.77;39.26;102474.69;5026760;28;20037;-83
2023/06/24 07:11:40;;;;;;;0.00;0.00;;;;;;;30.56;39.17;102476.41;5039790;28;20374;-84
2023/06/24 07:14:06;;;;;;;0.00;0.00;;;;;;;30.84;38.81;102485.38;5042070;28;20033;-81
2023/06/24 07:16:31;;;;;;;0.00;0.00;;;;;;;31.03;38.51;102472.84;5040352;28;20022;-81
2023/06/24 07:18:57;;;;;;;0.00;0.00;;;;;;;30.99;38.50;102487.69;5039871;28;20045;-80
2023/06/24 07:21:22;;;;;;;0.00;0.00;;;;;;;30.70;37.17;102477.09;5038291;28;20033;-81
2023/06/24 07:23:48;;;;;;;0.00;0.00;;;;;;;30.50;36.92;102476.88;5030470;28;20038;-81
2023/06/24 07:26:13;;;;;;;0.00;0.00;;;;;;;31.36;35.00;102472.38;5020044;28;20129;-83
2023/06/24 07:28:39;;;;;;;0.00;0.00;;;;;;;31.15;35.19;102473.00;5003805;28;20033;-82
2023/06/24 07:31:04;;;;;;;0.00;0.00;;;;;;;30.72;36.32;102466.50;5026290;28;20053;-81
2023/06/24 07:33:30;;;;;;;0.00;0.00;;;;;;;30.84;35.68;102465.94;5019354;28;20626;-80
2023/06/24 07:35:58;;;;;;;0.00;0.00;;;;;;;30.87;36.50;102463.31;5018977;28;20065;-83
2023/06/24 07:38:24;;;;;;;0.00;0.00;;;;;;;31.19;35.97;102470.41;5017406;28;20042;-82
2023/06/24 07:40:49;;;;;;;0.00;0.00;;;;;;;31.03;36.43;102463.69;5019947;28;20030;-82
2023/06/24 07:43:15;;;;;;;0.00;0.00;;;;;;;31.35;35.39;102471.53;5020126;28;20034;-82
2023/06/24 07:46:18;;;;;;;0.00;0.00;;;;;;;31.97;34.42;102470.13;5019684;28;20029;-82
2023/06/24 07:48:44;;;;;;;0.00;0.00;;;;;;;32.02;34.44;102477.44;5006528;28;20034;-80
2023/06/24 07:51:09;;;;;;;0.00;0.00;;;;;;;32.02;34.58;102479.44;5014141;28;20087;-79
2023/06/24 07:53:34;;;;;;;0.00;0.00;;;;;;;31.82;34.43;102470.59;5020137;28;20051;-81
2023/06/24 07:56:00;;;;;;;0.00;0.00;;;;;;;32.17;34.23;102471.38;5019984;28;20037;-79
2023/06/24 07:58:25;;;;;;;0.00;0.00;;;;;;;32.14;34.62;102476.81;5019590;28;20022;-79
2023/06/24 08:00:51;;;;;;;0.00;0.00;;;;;;;31.72;34.79;102470.94;5006433;28;20171;-80
2023/06/24 08:03:16;;;;;;;0.00;0.00;;;;;;;32.13;34.06;102467.63;5001778;28;20049;-80
2023/06/24 08:05:42;;;;;;;0.00;0.00;;;;;;;32.38;33.59;102468.69;5010893;28;20038;-79
2023/06/24 08:08:07;;;;;;;0.00;0.00;;;;;;;32.80;33.68;102462.13;4992276;28;20042;-70
2023/06/24 08:10:33;;;;;;;0.00;0.00;;;;;;;33.03;32.13;102462.66;4991976;28;20054;-72
2023/06/24 08:12:58;;;;;;;0.00;0.00;;;;;;;33.00;30.91;102458.63;5009736;28;20034;-72
2023/06/24 08:15:24;;;;;;;0.00;0.00;;;;;;;32.70;30.46;102459.72;5011956;28;20033;-73
2023/06/24 08:17:54;;;;;;;0.00;0.00;;;;;;;32.73;30.24;102454.31;5011291;28;20411;-73
2023/06/24 08:20:21;;;;;;;0.00;0.00;;;;;;;33.48;29.87;102460.88;5005700;28;20121;-70
2023/06/24 08:22:46;;;;;;;0.00;0.00;;;;;;;33.15;29.89;102457.19;5011478;28;20056;-70
2023/06/24 08:25:12;;;;;;;0.00;0.00;;;;;;;32.85;28.08;102462.75;5009047;28;20471;-72
2023/06/24 08:27:37;;;;;;;0.00;0.00;;;;;;;32.41;26.35;102459.69;5001685;28;20038;-70
2023/06/24 08:30:08;;;;;;;0.00;0.00;;;;;;;32.53;25.13;102452.28;4980654;28;20116;-72
2023/06/24 08:32:33;;;;;;;0.00;0.00;;;;;;;32.68;23.93;102462.84;4997310;28;20065;-72
2023/06/24 08:34:59;;;;;;;0.00;0.00;;;;;;;32.69;24.15;102453.34;5005003;28;20057;-72
2023/06/24 08:37:24;;;;;;;0.00;0.00;;;;;;;32.81;24.11;102447.88;4993144;28;20027;-71
2023/06/24 08:39:49;;;;;;;0.00;0.00;;;;;;;33.07;24.19;102453.31;4993502;28;20041;-71
2023/06/24 08:42:15;;;;;;;0.00;0.00;;;;;;;32.07;25.22;102460.59;5002605;28;20564;-73
2023/06/24 08:44:41;;;;;;;0.00;0.00;;;;;;;32.11;24.96;102466.31;5001338;28;20034;-73
2023/06/24 08:47:06;;;;;;;0.00;0.00;;;;;;;31.80;25.91;102461.75;4981168;28;20060;-70
2023/06/24 08:49:34;;;;;;;0.00;0.00;;;;;;;31.80;26.58;102458.19;5005500;28;20021;-70
2023/06/24 08:52:02;;;;;;;0.00;0.00;;;;;;;32.10;26.27;102461.91;5013813;28;20037;-73
2023/06/24 08:54:28;;;;;;;0.00;0.00;;;;;;;33.08;24.88;102446.56;5000529;28;20038;-71
2023/06/24 08:56:54;;;;;;;0.00;0.00;;;;;;;32.73;26.03;102445.94;5001164;28;20022;-73
2023/06/24 08:59:20;;;;;;;0.00;0.00;;;;;;;33.17;25.42;102441.75;5002444;28;20033;-72
2023/06/24 09:01:49;;;;;;;0.00;0.00;;;;;;;33.79;25.98;102444.50;5010407;28;20034;-70
2023/06/24 09:04:14;;;;;;;0.00;0.00;;;;;;;33.66;25.89;102446.47;5016288;28;20116;-72
2023/06/24 09:06:40;;;;;;;0.00;0.00;;;;;;;32.42;28.40;102450.16;5020069;28;20531;-71
2023/06/24 09:09:18;;;;;;;0.00;0.00;;;;;;;33.13;27.04;102439.97;5006176;28;20038;-73
2023/06/24 09:11:54;;;;;;;0.00;0.00;;;;;;;33.66;26.47;102448.41;5029996;28;20061;-72
2023/06/24 09:14:20;;;;;;;0.00;0.00;;;;;;;33.35;26.66;102439.66;5016588;28;20120;-71
2023/06/24 09:17:03;;;;;;;0.00;0.00;;;;;;;35.03;25.26;102447.59;5016271;28;20030;-70
2023/06/24 09:19:36;;;;;;;0.00;0.00;;;;;;;34.28;25.22;102449.06;5030825;28;20725;-70
2023/06/24 09:22:06;;;;;;;0.00;0.00;;;;;;;35.15;24.54;102446.75;5030812;28;20892;-71
2023/06/24 09:24:34;;;;;;;;;;;;;;;35.21;24.26;102445.34;5031778;28;20149;-72
2023/06/24 09:27:00;;;;;;;0.00;0.00;;;;;;;34.98;25.41;102447.84;5029227;28;20332;-72
2023/06/24 09:29:35;;;;;;;0.00;0.00;;;;;;;35.10;25.38;102436.66;5033005;28;20060;-70
2023/06/24 09:32:05;;;;;;;0.00;0.00;;;;;;;35.37;25.78;102440.66;5029598;28;20052;-70
2023/06/24 09:34:31;;;;;;;0.00;0.00;;;;;;;35.96;24.26;102438.78;5021249;28;20025;-72
2023/06/24 09:36:58;;;;;;;0.00;0.00;;;;;;;35.71;24.61;102436.47;5012862;28;20614;-72
2023/06/24 09:39:30;;;;;;;0.00;0.00;;;;;;;35.47;24.46;102436.56;5005682;28;20036;-69
2023/06/24 09:42:02;;;;;;;0.00;0.00;;;;;;;35.15;24.84;102436.41;5029546;28;20052;-74
2023/06/24 09:44:28;;;;;;;0.00;0.00;;;;;;;35.47;24.61;102437.38;5028020;28;20033;-72
2023/06/24 09:46:58;;;;;;;0.00;0.00;;;;;;;36.03;24.19;102435.38;5020481;28;20363;-71
2023/06/24 09:49:24;;;;;;;0.00;0.00;;;;;;;36.42;24.14;102428.00;5030720;28;20049;-70
2023/06/24 09:51:55;;;;;;;0.00;0.00;;;;;;;36.21;23.59;102425.44;5028567;28;20053;-73
2023/06/24 09:54:21;;;;;;;0.00;0.00;;;;;;;36.19;24.84;102425.81;5035631;28;20127;-72
2023/06/24 09:56:49;;;;;;;0.00;0.00;;;;;;;36.83;23.97;102421.78;5029017;28;20076;-70
2023/06/24 09:59:17;;;;;;;0.00;0.00;;;;;;;36.49;23.90;102423.38;5026670;28;20041;-70
2023/06/24 10:01:44;;;;;;;0.00;0.00;;;;;;;35.68;25.18;102418.38;5029413;28;20025;-70
2023/06/24 10:04:16;;;;;;;0.00;0.00;;;;;;;36.55;24.42;102421.09;5023010;28;20034;-70
2023/06/24 10:06:41;;;;;;;0.00;0.00;;;;;;;36.19;23.32;102419.38;5026131;28;20037;-69
2023/06/24 10:09:08;;;;;;;0.00;0.00;;;;;;;35.42;24.94;102420.00;5026065;28;20087;-72
2023/06/24 10:11:34;;;;;;;0.00;0.00;;;;;;;35.66;23.94;102412.34;5026364;28;20030;-73
2023/06/24 10:13:59;;;;;;;0.00;0.00;;;;;;;36.03;24.09;102418.59;5008746;28;20063;-71
2023/06/24 10:16:25;;;;;;;0.00;0.00;;;;;;;35.75;24.59;102418.59;5025381;28;20029;-72
2023/06/24 10:18:51;;;;;;;0.00;0.00;;;;;;;36.14;24.85;102420.47;5011459;28;20052;-70
2023/06/24 10:21:16;;;;;;;0.00;0.00;;;;;;;35.68;25.52;102415.59;5006384;28;20042;-73
2023/06/24 10:23:52;;;;;;;0.00;0.00;;;;;;;35.20;25.70;102416.56;5005911;28;20462;-72
2023/06/24 10:26:35;;;;;;;0.00;0.00;;;;;;;35.85;24.52;102414.47;5006191;28;20038;-73
2023/06/24 10:29:06;;;;;;;0.00;0.00;;;;;;;35.60;24.60;102410.19;5006786;28;20041;-72
2023/06/24 10:31:55;;;;;;;0.00;0.00;;;;;;;36.12;23.46;102402.41;5005045;28;20022;-72
2023/06/24 10:34:23;;;;;;;0.00;0.00;;;;;;;35.55;23.98;102405.66;4921603;29;20493;-71
2023/06/24 10:37:08;;;;;;;0.00;0.00;;;;;;;33.77;23.93;102406.97;4919687;29;20039;-73
2023/06/24 10:39:58;;;;;;;0.00;0.00;;;;;;;35.44;22.77;102412.06;4919606;29;20039;-71
2023/06/24 10:42:23;;;;;;;0.00;0.00;;;;;;;36.85;22.39;102406.28;4918841;29;20051;-71
2023/06/24 10:44:50;;;;;;;0.00;0.00;;;;;;;35.72;24.15;102396.91;4920531;29;20135;-73
2023/06/24 10:47:19;;;;;;;0.00;0.00;;;;;;;35.01;24.85;102401.59;4922370;29;20123;-72
2023/06/24 10:49:45;;;;;;;0.00;0.00;;;;;;;35.81;25.08;102391.16;4922442;29;20123;-72
2023/06/24 10:52:11;;;;;;;0.00;0.00;;;;;;;35.31;25.51;102395.34;4921445;29;20048;-72
2023/06/24 10:54:38;;;;;;;0.00;0.00;;;;;;;36.12;24.85;102391.22;4921300;29;20060;-72
2023/06/24 10:57:10;;;;;;;0.00;0.00;;;;;;;35.05;25.82;102388.53;4918965;29;20537;-71
2023/06/24 10:59:42;;;;;;;0.00;0.00;;;;;;;36.16;24.68;102400.50;4919601;29;20032;-72
2023/06/24 11:02:09;;;;;;;0.00;0.00;;;;;;;35.69;25.04;102397.66;4923596;29;20064;-72
2023/06/24 11:04:51;;;;;;;0.00;0.00;;;;;;;36.36;24.19;102395.81;4920582;29;20040;-72
2023/06/24 11:07:19;;;;;;;0.00;0.00;;;;;;;36.74;23.42;102384.72;4928236;29;20773;-71
2023/06/24 11:10:00;;;;;;;0.00;0.00;;;;;;;36.89;23.67;102379.13;4937781;29;20044;-73
2023/06/24 11:12:28;;;;;;;0.00;0.00;;;;;;;36.38;24.04;102380.28;4997267;28;20065;-72
2023/06/24 11:14:58;;;;;;;0.00;0.00;;;;;;;36.20;24.61;102384.63;5008909;28;20129;-70
2023/06/24 11:17:24;;;;;;;0.00;0.00;;;;;;;36.92;22.82;102378.38;5008544;28;20030;-71
2023/06/24 11:19:49;;;;;;;0.00;0.00;;;;;;;36.09;23.51;102386.31;5029698;28;20045;-72
2023/06/24 11:22:15;;;;;;;0.00;0.00;;;;;;;36.73;23.37;102375.53;5029365;28;20029;-71
2023/06/24 11:24:41;;;;;;;0.00;0.00;;;;;;;38.07;22.09;102374.66;5029910;28;20041;-73
2023/06/24 11:27:07;;;;;;;0.00;0.00;;;;;;;36.80;24.15;102381.28;5011722;28;20048;-72
2023/06/24 11:29:34;;;;;;;0.00;0.00;;;;;;;35.86;24.74;102382.50;5028737;28;20038;-70
2023/06/24 11:32:02;;;;;;;0.00;0.00;;;;;;;35.76;24.64;102383.03;5029683;28;20025;-72